OICK  Khoram Abad  Airport

Iran

Add Bookmark
ICAO OICK
IATA KHD
Type Airport
Status Operational
Latitude
33° 26' 7" N
33.435398
Longitude
48° 16' 58" E
48.282902
Local (GMT +4.5 ) UTC
Jul 29, 2016 04:31 pm Jul 29, 2016 12:01
Sunrise-Sunset Local UTC
Begin Civil Twilight 05:59 am 01:29
Sunrise 06:26 am 01:56
Sunset 08:20 pm 15:50
End Civil Twilight 08:47 pm 16:17
VFR
VFR
MVFR
MVFR
IFR
IFR
LIFR
LIFR
Unknown
Unavailable

Current Weather

METAR Observed VFR
OICK 291130Z 30014KT CAVOK 37/M02 Q1009 Fri, Jul 29, 2016 @ 11:30 UTC
(31 Minutes ago)
Visual Flight Rules
Wind Visibility Conditions
300° at 14 knots (26 kph) 10 km or more
  • No significant weather
Temperatures Readings Precipitation
Current Temp
37°C
99°F
Dewpoint
-2°C
28°F
Humidity 8%
Altimeter 29.79" Hg
Sea Level Pressure 1,009 mb
Field Elevation
1,155 m
3,789 ft
None Recorded

Additional weather within a 92.6km radius of OICK

Map ICAO Location
OICJ 67.4km NE (040°)
VFR
VFR
MVFR
MVFR
IFR
IFR
LIFR
LIFR
Unknown
Unavailable
-
-

CheckWX.com is intended as a tool to help pilots better visualize weather data. It is not intended as a substitute for an official weather briefing obtained from a Flight Service Station. CheckWX.com does not meet the FAA requirements for an official pre-flight weather briefing. Therefore, it's important that pilots still call and obtain an official FSS pre-flight weather briefing.

© 2007-2016 CheckWX.com
12:01:03 UTC